createdAt,value
2023-03-13T00:00:58.210Z,1002.15
2023-03-13T00:01:58.243Z,1002.19
2023-03-13T00:02:58.178Z,1002.21
2023-03-13T00:03:58.176Z,1002.26
2023-03-13T00:04:58.221Z,1002.19
2023-03-13T00:05:58.162Z,1002.25
2023-03-13T00:06:58.158Z,1002.24
2023-03-13T00:07:58.153Z,1002.19
2023-03-13T00:08:58.121Z,1002.17
2023-03-13T00:09:58.111Z,1002.14
2023-03-13T00:10:58.108Z,1002.16
2023-03-13T00:11:58.105Z,1002.19
2023-03-13T00:12:58.067Z,1002.20
2023-03-13T00:13:58.062Z,1002.14
2023-03-13T00:14:58.044Z,1002.16
2023-03-13T00:15:58.061Z,1002.11
2023-03-13T00:16:58.046Z,1002.13
2023-03-13T00:17:58.039Z,1002.07
2023-03-13T00:18:58.001Z,1002.07
2023-03-13T00:19:57.996Z,1002.03
2023-03-13T00:20:58.004Z,1002.07
2023-03-13T00:21:58.000Z,1002.05
2023-03-13T00:22:57.964Z,1002.06
2023-03-13T00:23:57.978Z,1002.03
2023-03-13T00:24:57.935Z,1002.07
2023-03-13T00:25:57.932Z,1002.10
2023-03-13T00:26:57.926Z,1002.03
2023-03-13T00:27:57.906Z,1002.03
2023-03-13T00:28:57.891Z,1002.09
2023-03-13T00:29:57.884Z,1002.09
2023-03-13T00:30:57.995Z,1002.01
2023-03-13T00:31:57.980Z,1001.96
2023-03-13T00:32:57.869Z,1002.02
2023-03-13T00:33:57.838Z,1002.03
2023-03-13T00:34:57.830Z,1002.03
2023-03-13T00:35:57.853Z,1002.04
2023-03-13T00:36:57.822Z,1001.97
2023-03-13T00:37:57.812Z,1001.98
2023-03-13T00:38:57.788Z,1001.85
2023-03-13T00:39:57.790Z,1001.88
2023-03-13T00:40:57.759Z,1001.88
2023-03-13T00:41:57.775Z,1001.83
2023-03-13T00:42:57.765Z,1001.79
2023-03-13T00:43:57.747Z,1001.80
2023-03-13T00:44:57.723Z,1001.78
2023-03-13T00:45:57.749Z,1001.81
2023-03-13T00:46:57.688Z,1001.73
2023-03-13T00:47:57.705Z,1001.71
2023-03-13T00:48:57.680Z,1001.69
2023-03-13T00:49:57.657Z,1001.66
2023-03-13T00:50:57.649Z,1001.61
2023-03-13T00:51:57.638Z,1001.61
2023-03-13T00:52:57.645Z,1001.65
2023-03-13T00:53:57.622Z,1001.61
2023-03-13T00:54:57.602Z,1001.62
2023-03-13T00:55:57.616Z,1001.56
2023-03-13T00:56:57.579Z,1001.58
2023-03-13T00:57:57.596Z,1001.60
2023-03-13T00:58:57.561Z,1001.57
2023-03-13T00:59:57.555Z,1001.56
2023-03-13T01:00:57.535Z,1001.58
2023-03-13T01:01:57.568Z,1001.58
2023-03-13T01:02:57.696Z,1001.62
2023-03-13T01:03:57.513Z,1001.60
2023-03-13T01:04:59.801Z,1001.58
2023-03-13T01:05:57.492Z,1001.61
2023-03-13T01:06:57.475Z,1001.60
2023-03-13T01:07:57.492Z,1001.57
2023-03-13T01:08:57.482Z,1001.60
2023-03-13T01:09:57.451Z,1001.55
2023-03-13T01:10:57.435Z,1001.62
2023-03-13T01:11:57.451Z,1001.56
2023-03-13T01:12:57.441Z,1001.57
2023-03-13T01:13:57.411Z,1001.53
2023-03-13T01:14:57.393Z,1001.49
2023-03-13T01:15:57.481Z,1001.47
2023-03-13T01:16:57.365Z,1001.50
2023-03-13T01:17:57.380Z,1001.44
2023-03-13T01:18:57.355Z,1001.50
2023-03-13T01:19:57.340Z,1001.46
2023-03-13T01:20:57.324Z,1001.49
2023-03-13T01:21:57.318Z,1001.43
2023-03-13T01:22:57.303Z,1001.53
2023-03-13T01:23:57.332Z,1001.45
2023-03-13T01:24:57.284Z,1001.49
2023-03-13T01:25:57.276Z,1001.56
2023-03-13T01:26:57.265Z,1001.52
2023-03-13T01:27:57.380Z,1001.53
2023-03-13T01:28:57.261Z,1001.60
2023-03-13T01:29:57.238Z,1001.55
2023-03-13T01:30:57.274Z,1001.54
2023-03-13T01:31:57.214Z,1001.60
2023-03-13T01:32:57.290Z,1001.53
2023-03-13T01:33:57.236Z,1001.55
2023-03-13T01:34:57.199Z,1001.61
2023-03-13T01:35:57.198Z,1001.73
2023-03-13T01:36:57.153Z,1001.62
2023-03-13T01:37:57.164Z,1001.59
2023-03-13T01:38:57.142Z,1001.61
2023-03-13T01:39:57.149Z,1001.55
2023-03-13T01:40:57.107Z,1001.54
2023-03-13T01:41:57.144Z,1001.49
2023-03-13T01:42:57.092Z,1001.51
2023-03-13T01:43:57.124Z,1001.53
2023-03-13T01:44:57.063Z,1001.51
2023-03-13T01:45:57.100Z,1001.54
2023-03-13T01:46:57.045Z,1001.49
2023-03-13T01:47:57.031Z,1001.42
2023-03-13T01:48:57.051Z,1001.41
2023-03-13T01:49:57.011Z,1001.42
2023-03-13T01:50:57.032Z,1001.37
2023-03-13T01:51:57.041Z,1001.36
2023-03-13T01:52:57.035Z,1001.39
2023-03-13T01:53:56.990Z,1001.40
2023-03-13T01:54:56.980Z,1001.36
2023-03-13T01:55:56.945Z,1001.32
2023-03-13T01:56:56.948Z,1001.32
2023-03-13T01:57:56.941Z,1001.32
2023-03-13T01:58:56.941Z,1001.32
2023-03-13T01:59:56.926Z,1001.24
2023-03-13T02:00:56.887Z,1001.26
2023-03-13T02:01:57.002Z,1001.24
2023-03-13T02:02:56.918Z,1001.22
2023-03-13T02:03:56.914Z,1001.30
2023-03-13T02:04:56.844Z,1001.27
2023-03-13T02:05:56.834Z,1001.26
2023-03-13T02:06:56.847Z,1001.16
2023-03-13T02:07:56.813Z,1001.27
2023-03-13T02:08:56.822Z,1001.27
2023-03-13T02:09:56.798Z,1001.22
2023-03-13T02:10:56.777Z,1001.20
2023-03-13T02:11:56.768Z,1001.16
2023-03-13T02:12:56.776Z,1001.08
2023-03-13T02:13:56.753Z,1001.10
2023-03-13T02:14:56.735Z,1001.04
2023-03-13T02:15:56.842Z,1001.02
2023-03-13T02:16:56.709Z,1001.06
2023-03-13T02:17:56.725Z,1001.00
2023-03-13T02:18:56.726Z,1001.00
2023-03-13T02:19:56.682Z,1000.97
2023-03-13T02:20:56.678Z,1000.91
2023-03-13T02:21:56.652Z,1000.90
2023-03-13T02:22:56.668Z,1000.84
2023-03-13T02:23:56.632Z,1000.83
2023-03-13T02:24:56.625Z,1000.88
2023-03-13T02:25:56.613Z,1000.93
2023-03-13T02:26:56.605Z,1000.91
2023-03-13T02:27:56.608Z,1000.84
2023-03-13T02:28:56.580Z,1000.86
2023-03-13T02:29:56.566Z,1000.94
2023-03-13T02:30:56.711Z,1000.84
2023-03-13T02:31:56.569Z,1000.86
2023-03-13T02:32:56.581Z,1000.85
2023-03-13T02:33:56.523Z,1000.84
2023-03-13T02:34:56.542Z,1000.79
2023-03-13T02:35:56.541Z,1000.85
2023-03-13T02:36:56.492Z,1000.79
2023-03-13T02:37:56.500Z,1000.82
2023-03-13T02:38:56.472Z,1000.70
2023-03-13T02:39:56.479Z,1000.72
2023-03-13T02:40:56.444Z,1000.72
2023-03-13T02:41:56.436Z,1000.70
2023-03-13T02:42:56.461Z,1000.69
2023-03-13T02:43:56.430Z,1000.71
2023-03-13T02:44:56.403Z,1000.67
2023-03-13T02:45:56.392Z,1000.64
2023-03-13T02:46:56.453Z,1000.64
2023-03-13T02:47:56.411Z,1000.62
2023-03-13T02:48:56.362Z,1000.62
2023-03-13T02:49:56.374Z,1000.61
2023-03-13T02:50:56.344Z,1000.58
2023-03-13T02:51:56.332Z,1000.58
2023-03-13T02:52:56.321Z,1000.61
2023-03-13T02:53:56.307Z,1000.51
2023-03-13T02:54:56.328Z,1000.54
2023-03-13T02:55:56.287Z,1000.55
2023-03-13T02:56:56.285Z,1000.45
2023-03-13T02:57:56.265Z,1000.43
2023-03-13T02:58:56.255Z,1000.37
2023-03-13T02:59:56.243Z,1000.41
2023-03-13T03:00:56.292Z,1000.36
2023-03-13T03:01:56.246Z,1000.41
2023-03-13T03:02:56.227Z,1000.34
2023-03-13T03:03:56.272Z,1000.35
2023-03-13T03:04:56.213Z,1000.34
2023-03-13T03:05:56.188Z,1000.38
2023-03-13T03:06:56.201Z,1000.36
2023-03-13T03:07:56.165Z,1000.38
2023-03-13T03:08:56.177Z,1000.33
2023-03-13T03:09:56.138Z,1000.31
2023-03-13T03:10:56.128Z,1000.33
2023-03-13T03:11:56.152Z,1000.28
2023-03-13T03:12:56.113Z,1000.30
2023-03-13T03:13:56.090Z,1000.23
2023-03-13T03:14:56.090Z,1000.27
2023-03-13T03:15:56.074Z,1000.20
2023-03-13T03:16:56.099Z,1000.22
2023-03-13T03:17:56.051Z,1000.16
2023-03-13T03:18:56.041Z,1000.19
2023-03-13T03:19:56.046Z,1000.18
2023-03-13T03:20:56.035Z,1000.18
2023-03-13T03:21:56.070Z,1000.15
2023-03-13T03:22:55.990Z,1000.08
2023-03-13T03:23:55.980Z,1000.13
2023-03-13T03:24:55.980Z,1000.13
2023-03-13T03:25:55.952Z,1000.13
2023-03-13T03:26:55.946Z,1000.15
2023-03-13T03:27:55.954Z,1000.09
2023-03-13T03:28:55.928Z,1000.10
2023-03-13T03:29:55.908Z,1000.14
2023-03-13T03:30:55.902Z,1000.08
2023-03-13T03:31:55.962Z,1000.08
2023-03-13T03:32:55.962Z,1000.13
2023-03-13T03:33:55.872Z,1000.13
2023-03-13T03:34:55.859Z,1000.11
2023-03-13T03:35:55.907Z,1000.08
2023-03-13T03:36:55.841Z,1000.11
2023-03-13T03:37:55.840Z,1000.06
2023-03-13T03:38:55.816Z,1000.03
2023-03-13T03:39:55.801Z,1000.10
2023-03-13T03:40:55.796Z,1000.07
2023-03-13T03:41:55.800Z,1000.06
2023-03-13T03:42:55.794Z,1000.01
2023-03-13T03:43:55.754Z,1000.01
2023-03-13T03:44:55.747Z,1000.03
2023-03-13T03:45:55.811Z,1000.00
2023-03-13T03:46:55.883Z,999.97
2023-03-13T03:47:55.731Z,1000.00
2023-03-13T03:48:55.705Z,999.96
2023-03-13T03:49:55.687Z,999.92
2023-03-13T03:50:55.682Z,999.94
2023-03-13T03:51:55.713Z,999.91
2023-03-13T03:52:55.685Z,999.93
2023-03-13T03:53:55.657Z,999.88
2023-03-13T03:54:55.639Z,999.82
2023-03-13T03:55:55.642Z,999.79
2023-03-13T03:56:55.646Z,999.83
2023-03-13T03:57:55.608Z,999.78
2023-03-13T03:58:55.597Z,999.77
2023-03-13T03:59:55.585Z,999.80
2023-03-13T04:00:55.579Z,999.79
2023-03-13T04:01:55.620Z,999.75
2023-03-13T04:02:55.618Z,999.74
2023-03-13T04:03:55.578Z,999.67
2023-03-13T04:04:55.543Z,999.68
2023-03-13T04:05:55.525Z,999.73
2023-03-13T04:06:55.539Z,999.67
2023-03-13T04:07:55.535Z,999.62
2023-03-13T04:08:55.516Z,999.57
2023-03-13T04:09:55.483Z,999.52
2023-03-13T04:10:55.481Z,999.56
2023-03-13T04:11:55.461Z,999.56
2023-03-13T04:12:55.454Z,999.53
2023-03-13T04:13:55.472Z,999.52
2023-03-13T04:14:55.428Z,999.56
2023-03-13T04:15:55.444Z,999.49
2023-03-13T04:16:55.517Z,999.53
2023-03-13T04:17:55.399Z,999.47
2023-03-13T04:18:55.430Z,999.48
2023-03-13T04:19:55.381Z,999.44
2023-03-13T04:20:55.366Z,999.45
2023-03-13T04:21:55.355Z,999.44
2023-03-13T04:22:55.376Z,999.39
2023-03-13T04:23:55.359Z,999.42
2023-03-13T04:24:55.321Z,999.42
2023-03-13T04:25:55.313Z,999.35
2023-03-13T04:26:55.300Z,999.35
2023-03-13T04:27:55.312Z,999.33
2023-03-13T04:28:55.277Z,999.35
2023-03-13T04:29:55.266Z,999.32
2023-03-13T04:30:55.329Z,999.30
2023-03-13T04:31:55.250Z,999.25
2023-03-13T04:32:55.286Z,999.24
2023-03-13T04:33:55.232Z,999.20
2023-03-13T04:34:55.289Z,999.24
2023-03-13T04:35:55.325Z,999.19
2023-03-13T04:36:55.192Z,999.20
2023-03-13T04:37:55.201Z,999.16
2023-03-13T04:38:55.176Z,999.20
2023-03-13T04:39:55.214Z,999.10
2023-03-13T04:40:55.174Z,999.12
2023-03-13T04:41:55.134Z,999.09
2023-03-13T04:42:55.136Z,999.07
2023-03-13T04:43:55.118Z,999.09
2023-03-13T04:44:55.110Z,999.07
2023-03-13T04:45:55.280Z,999.01
2023-03-13T04:46:55.092Z,999.05
2023-03-13T04:47:55.071Z,999.06
2023-03-13T04:48:55.075Z,999.03
2023-03-13T04:49:55.064Z,999.02
2023-03-13T04:50:55.070Z,998.93
2023-03-13T04:51:55.029Z,998.93
2023-03-13T04:52:55.021Z,998.98
2023-03-13T04:53:55.007Z,998.90
2023-03-13T04:54:55.012Z,998.91
2023-03-13T04:55:55.036Z,998.88
2023-03-13T04:56:54.983Z,998.82
2023-03-13T04:57:54.966Z,998.83
2023-03-13T04:58:54.961Z,998.82
2023-03-13T04:59:54.949Z,998.75
2023-03-13T05:00:54.938Z,998.73
2023-03-13T05:01:54.945Z,998.77
2023-03-13T05:02:54.911Z,998.81
2023-03-13T05:03:54.903Z,998.73
2023-03-13T05:04:54.942Z,998.70
2023-03-13T05:05:54.888Z,998.65
2023-03-13T05:06:54.894Z,998.70
2023-03-13T05:07:54.879Z,998.63
2023-03-13T05:08:54.857Z,998.60
2023-03-13T05:09:54.840Z,998.55
2023-03-13T05:10:54.829Z,998.53
2023-03-13T05:11:57.102Z,998.46
2023-03-13T05:12:54.823Z,998.39
2023-03-13T05:13:54.794Z,998.44
2023-03-13T05:14:54.800Z,998.39
2023-03-13T05:15:54.874Z,998.30
2023-03-13T05:16:54.760Z,998.34
2023-03-13T05:17:54.992Z,998.28
2023-03-13T05:18:54.744Z,998.30
2023-03-13T05:19:54.762Z,998.25
2023-03-13T05:20:54.718Z,998.26
2023-03-13T05:21:54.704Z,998.19
2023-03-13T05:22:54.702Z,998.26
2023-03-13T05:23:54.687Z,998.17
2023-03-13T05:24:54.701Z,998.19
2023-03-13T05:25:54.659Z,998.15
2023-03-13T05:26:54.664Z,998.16
2023-03-13T05:27:54.765Z,998.17
2023-03-13T05:28:54.640Z,998.14
2023-03-13T05:29:54.648Z,998.23
2023-03-13T05:30:54.616Z,998.16
2023-03-13T05:31:54.607Z,998.09
2023-03-13T05:32:54.745Z,998.04
2023-03-13T05:33:54.577Z,998.09
2023-03-13T05:34:54.577Z,998.02
2023-03-13T05:35:54.666Z,998.06
2023-03-13T05:36:54.546Z,997.96
2023-03-13T05:37:54.536Z,998.00
2023-03-13T05:38:54.528Z,998.05
2023-03-13T05:39:54.514Z,997.88
2023-03-13T05:40:54.521Z,997.95
2023-03-13T05:41:54.488Z,997.91
2023-03-13T05:42:54.490Z,997.87
2023-03-13T05:43:54.515Z,997.92
2023-03-13T05:44:54.477Z,997.86
2023-03-13T05:45:54.470Z,997.86
2023-03-13T05:46:54.520Z,997.88
2023-03-13T05:47:54.423Z,997.78
2023-03-13T05:48:54.420Z,997.81
2023-03-13T05:49:54.406Z,997.80
2023-03-13T05:50:54.448Z,997.74
2023-03-13T05:51:54.383Z,997.74
2023-03-13T05:52:54.373Z,997.73
2023-03-13T05:53:54.359Z,997.73
2023-03-13T05:54:54.359Z,997.66
2023-03-13T05:55:54.355Z,997.64
2023-03-13T05:56:54.359Z,997.66
2023-03-13T05:57:54.313Z,997.60
2023-03-13T05:58:54.342Z,997.59
2023-03-13T05:59:54.340Z,997.58
2023-03-13T06:00:54.286Z,997.60
2023-03-13T06:01:54.285Z,997.61
2023-03-13T06:02:54.263Z,997.55
2023-03-13T06:03:54.413Z,997.51
2023-03-13T06:04:54.459Z,997.49
2023-03-13T06:05:54.235Z,997.46
2023-03-13T06:06:54.220Z,997.46
2023-03-13T06:07:54.209Z,997.51
2023-03-13T06:08:54.221Z,997.52
2023-03-13T06:09:54.187Z,997.44
2023-03-13T06:10:54.178Z,997.50
2023-03-13T06:11:54.164Z,997.45
2023-03-13T06:12:54.152Z,997.48
2023-03-13T06:13:54.164Z,997.44
2023-03-13T06:14:54.130Z,997.34
2023-03-13T06:15:54.228Z,997.42
2023-03-13T06:16:54.125Z,997.33
2023-03-13T06:17:54.099Z,997.38
2023-03-13T06:18:54.156Z,997.31
2023-03-13T06:19:54.080Z,997.32
2023-03-13T06:20:54.060Z,997.35
2023-03-13T06:21:54.049Z,997.29
2023-03-13T06:22:54.047Z,997.27
2023-03-13T06:23:54.032Z,997.21
2023-03-13T06:24:54.059Z,997.20
2023-03-13T06:25:54.010Z,997.19
2023-03-13T06:26:54.012Z,997.17
2023-03-13T06:27:53.983Z,997.13
2023-03-13T06:28:53.995Z,997.09
2023-03-13T06:29:54.009Z,997.05
2023-03-13T06:30:53.957Z,997.08
2023-03-13T06:31:54.132Z,997.09
2023-03-13T06:32:54.062Z,997.07
2023-03-13T06:33:53.931Z,997.06
2023-03-13T06:34:53.944Z,997.02
2023-03-13T06:35:56.911Z,996.99
2023-03-13T06:36:53.895Z,996.96
2023-03-13T06:37:53.893Z,996.87
2023-03-13T06:38:53.892Z,996.85
2023-03-13T06:39:53.888Z,996.84
2023-03-13T06:40:53.855Z,996.79
2023-03-13T06:41:53.858Z,996.73
2023-03-13T06:42:53.825Z,996.67
2023-03-13T06:43:53.827Z,996.69
2023-03-13T06:44:53.830Z,996.62
2023-03-13T06:45:53.792Z,996.70
2023-03-13T06:46:53.851Z,996.65
2023-03-13T06:47:53.798Z,996.67
2023-03-13T06:48:53.768Z,996.58
2023-03-13T06:49:53.790Z,996.57
2023-03-13T06:50:53.746Z,996.57
2023-03-13T06:51:53.744Z,996.50
2023-03-13T06:52:53.723Z,996.50
2023-03-13T06:53:53.712Z,996.51
2023-03-13T06:54:53.719Z,996.38
2023-03-13T06:55:53.726Z,996.38
2023-03-13T06:56:53.679Z,996.43
2023-03-13T06:57:53.674Z,996.39
2023-03-13T06:58:53.656Z,996.37
2023-03-13T06:59:53.650Z,996.34
2023-03-13T07:00:53.722Z,996.33
2023-03-13T07:01:53.634Z,996.26
2023-03-13T07:02:53.605Z,996.33
2023-03-13T07:03:53.722Z,996.28
2023-03-13T07:04:53.612Z,996.26
2023-03-13T07:05:53.607Z,996.21
2023-03-13T07:06:53.575Z,996.24
2023-03-13T07:07:53.581Z,996.24
2023-03-13T07:08:53.545Z,996.23
2023-03-13T07:09:53.545Z,996.28
2023-03-13T07:10:53.546Z,996.29
2023-03-13T07:11:53.544Z,996.25
2023-03-13T07:12:53.544Z,996.28
2023-03-13T07:13:55.060Z,996.19
2023-03-13T07:14:53.481Z,996.15
2023-03-13T07:15:53.481Z,996.24
2023-03-13T07:16:53.598Z,996.22
2023-03-13T07:17:53.474Z,996.23
2023-03-13T07:18:53.441Z,996.24
2023-03-13T07:19:53.480Z,996.26
2023-03-13T07:20:53.424Z,996.19
2023-03-13T07:21:53.432Z,996.24
2023-03-13T07:22:53.465Z,996.25
2023-03-13T07:23:53.391Z,996.17
2023-03-13T07:24:53.407Z,996.11
2023-03-13T07:25:53.373Z,996.10
2023-03-13T07:27:05.378Z,996.18
2023-03-13T07:27:54.378Z,996.09
2023-03-13T07:28:53.333Z,996.07
2023-03-13T07:29:53.341Z,996.17
2023-03-13T07:30:53.311Z,996.13
2023-03-13T07:31:53.390Z,996.11
2023-03-13T07:32:53.382Z,996.17
2023-03-13T07:33:53.285Z,996.11
2023-03-13T07:34:53.272Z,996.10
2023-03-13T07:35:53.289Z,996.12
2023-03-13T07:36:53.255Z,996.01
2023-03-13T07:37:53.267Z,996.04
2023-03-13T07:38:53.259Z,996.04
2023-03-13T07:39:53.245Z,995.92
2023-03-13T07:40:53.222Z,995.95
2023-03-13T07:41:53.213Z,995.99
2023-03-13T07:42:53.184Z,995.92
2023-03-13T07:43:53.171Z,995.85
2023-03-13T07:44:53.161Z,995.90
2023-03-13T07:45:53.212Z,995.97
2023-03-13T07:46:53.136Z,995.88
2023-03-13T07:47:53.131Z,995.86
2023-03-13T07:48:53.119Z,995.86
2023-03-13T07:49:53.128Z,995.75
2023-03-13T07:50:53.120Z,995.85
2023-03-13T07:51:53.109Z,995.82
2023-03-13T07:52:53.110Z,995.73
2023-03-13T07:53:53.065Z,995.67
2023-03-13T07:54:53.080Z,995.58
2023-03-13T07:55:53.037Z,995.53
2023-03-13T07:56:53.047Z,995.65
2023-03-13T07:57:53.025Z,995.66
2023-03-13T07:58:53.005Z,995.66
2023-03-13T07:59:53.020Z,995.58
2023-03-13T08:00:53.000Z,995.53
2023-03-13T08:01:53.111Z,995.59
2023-03-13T08:02:53.070Z,995.54
2023-03-13T08:03:53.050Z,995.56
2023-03-13T08:04:52.996Z,995.52
2023-03-13T08:05:52.968Z,995.47
2023-03-13T08:06:52.924Z,995.50
2023-03-13T08:07:52.945Z,995.48
2023-03-13T08:08:52.903Z,995.50
2023-03-13T08:09:52.890Z,995.50
2023-03-13T08:10:52.877Z,995.47
2023-03-13T08:11:52.910Z,995.51
2023-03-13T08:12:52.851Z,995.40
2023-03-13T08:13:52.846Z,995.35
2023-03-13T08:14:52.833Z,995.34
2023-03-13T08:15:52.831Z,995.43
2023-03-13T08:16:52.869Z,995.47
2023-03-13T08:17:52.812Z,995.39
2023-03-13T08:18:52.803Z,995.35
2023-03-13T08:19:52.812Z,995.23
2023-03-13T08:20:52.769Z,995.26
2023-03-13T08:21:52.759Z,995.24
2023-03-13T08:22:52.742Z,995.25
2023-03-13T08:23:52.788Z,995.14
2023-03-13T08:24:52.743Z,995.31
2023-03-13T08:25:52.712Z,995.25
2023-03-13T08:26:52.702Z,995.23
2023-03-13T08:27:52.689Z,995.14
2023-03-13T08:28:52.682Z,995.24
2023-03-13T08:29:52.695Z,995.15
2023-03-13T08:30:52.685Z,995.12
2023-03-13T08:31:52.653Z,995.18
2023-03-13T08:32:52.701Z,995.11
2023-03-13T08:33:52.656Z,995.09
2023-03-13T08:34:52.623Z,995.05
2023-03-13T08:35:52.631Z,995.11
2023-03-13T08:36:52.592Z,995.05
2023-03-13T08:37:52.610Z,995.08
2023-03-13T08:38:52.566Z,995.02
2023-03-13T08:39:52.581Z,995.04
2023-03-13T08:40:52.547Z,994.96
2023-03-13T08:41:52.565Z,994.99
2023-03-13T08:42:52.526Z,994.94
2023-03-13T08:43:52.520Z,994.99
2023-03-13T08:44:52.505Z,994.90
2023-03-13T08:45:52.536Z,994.93
2023-03-13T08:46:52.567Z,994.98
2023-03-13T08:47:52.503Z,994.82
2023-03-13T08:48:52.468Z,994.99
2023-03-13T08:49:52.456Z,994.96
2023-03-13T08:50:52.457Z,994.94
2023-03-13T08:51:52.461Z,994.90
2023-03-13T08:52:52.427Z,994.93
2023-03-13T08:53:52.413Z,994.99
2023-03-13T08:54:52.418Z,994.83
2023-03-13T08:55:52.424Z,994.80
2023-03-13T08:56:52.379Z,994.89
2023-03-13T08:57:52.439Z,994.75
2023-03-13T08:58:52.376Z,994.80
2023-03-13T08:59:52.379Z,994.76
2023-03-13T09:00:52.340Z,994.78
2023-03-13T09:01:52.352Z,994.73
2023-03-13T09:02:52.399Z,994.72
2023-03-13T09:03:52.329Z,994.70
2023-03-13T09:04:52.298Z,994.68
2023-03-13T09:05:56.328Z,994.60
2023-03-13T09:06:52.299Z,994.67
2023-03-13T09:07:52.265Z,994.57
2023-03-13T09:08:52.267Z,994.62
2023-03-13T09:09:52.251Z,994.63
2023-03-13T09:10:52.229Z,994.58
2023-03-13T09:11:52.268Z,994.54
2023-03-13T09:12:52.211Z,994.52
2023-03-13T09:13:52.221Z,994.51
2023-03-13T09:14:52.190Z,994.52
2023-03-13T09:15:52.217Z,994.54
2023-03-13T09:16:52.201Z,994.53
2023-03-13T09:17:52.176Z,994.52
2023-03-13T09:18:52.289Z,994.45
2023-03-13T09:20:00.228Z,994.42
2023-03-13T09:20:52.127Z,994.44
2023-03-13T09:21:52.130Z,994.50
2023-03-13T09:22:52.141Z,994.49
2023-03-13T09:23:52.088Z,994.44
2023-03-13T09:24:52.077Z,994.53
2023-03-13T09:25:52.080Z,994.52
2023-03-13T09:27:00.918Z,994.59
2023-03-13T09:27:53.075Z,994.50
2023-03-13T09:28:52.334Z,994.56
2023-03-13T09:29:52.033Z,994.53
2023-03-13T09:30:52.046Z,994.50
2023-03-13T09:31:52.042Z,994.51
2023-03-13T09:32:52.021Z,994.48
2023-03-13T09:33:52.026Z,994.51
2023-03-13T09:34:51.968Z,994.56
2023-03-13T09:35:51.967Z,994.57
2023-03-13T09:36:51.975Z,994.50
2023-03-13T09:37:51.949Z,994.59
2023-03-13T09:38:52.013Z,994.57
2023-03-13T09:39:51.921Z,994.55
2023-03-13T09:41:05.292Z,994.60
2023-03-13T09:41:52.965Z,994.61
2023-03-13T09:42:51.887Z,994.54
2023-03-13T09:43:51.927Z,994.56
2023-03-13T09:44:51.864Z,994.56
2023-03-13T09:45:51.861Z,994.50
2023-03-13T09:46:51.978Z,994.63
2023-03-13T09:47:51.839Z,994.49
2023-03-13T09:48:51.817Z,994.57
2023-03-13T09:49:51.817Z,994.41
2023-03-13T09:50:51.797Z,994.38
2023-03-13T09:51:51.824Z,994.49
2023-03-13T09:52:51.784Z,994.33
2023-03-13T09:53:51.791Z,994.41
2023-03-13T09:54:51.758Z,994.33
2023-03-13T09:55:51.749Z,994.28
2023-03-13T09:56:51.730Z,994.30
2023-03-13T09:57:51.732Z,994.27
2023-03-13T09:58:51.743Z,994.33
2023-03-13T09:59:51.756Z,994.24
2023-03-13T10:00:51.686Z,994.22
2023-03-13T10:01:51.733Z,994.22
2023-03-13T10:02:51.667Z,994.17
2023-03-13T10:03:51.679Z,994.21
2023-03-13T10:04:51.747Z,994.16
2023-03-13T10:05:51.649Z,994.19
2023-03-13T10:06:51.627Z,994.16
2023-03-13T10:07:51.610Z,994.19
2023-03-13T10:08:51.620Z,994.26
2023-03-13T10:09:51.588Z,994.22
2023-03-13T10:10:51.570Z,994.21
2023-03-13T10:11:51.569Z,994.17
2023-03-13T10:12:51.550Z,994.13
2023-03-13T10:13:51.579Z,994.16
2023-03-13T10:14:51.530Z,994.15
2023-03-13T10:15:51.611Z,994.19
2023-03-13T10:16:51.514Z,994.17
2023-03-13T10:17:51.509Z,994.12
2023-03-13T10:18:51.512Z,994.13
2023-03-13T10:19:51.481Z,994.15
2023-03-13T10:20:51.474Z,994.11
2023-03-13T10:21:51.481Z,994.18
2023-03-13T10:22:51.626Z,994.18
2023-03-13T10:23:51.446Z,994.05
2023-03-13T10:24:51.438Z,994.08
2023-03-13T10:25:51.406Z,994.13
2023-03-13T10:26:51.419Z,994.10
2023-03-13T10:27:51.389Z,994.06
2023-03-13T10:28:51.422Z,994.08
2023-03-13T10:29:51.370Z,994.06
2023-03-13T10:30:51.422Z,994.09
2023-03-13T10:31:51.377Z,994.04
2023-03-13T10:32:51.414Z,994.05
2023-03-13T10:33:51.327Z,994.01
2023-03-13T10:34:51.347Z,993.99
2023-03-13T10:35:51.328Z,993.87
2023-03-13T10:36:51.500Z,993.82
2023-03-13T10:37:51.278Z,993.87
2023-03-13T10:38:51.297Z,993.84
2023-03-13T10:39:51.255Z,993.84
2023-03-13T10:40:51.245Z,993.93
2023-03-13T10:41:51.264Z,993.88
2023-03-13T10:42:51.227Z,993.97
2023-03-13T10:43:51.251Z,993.80
2023-03-13T10:44:51.221Z,993.87
2023-03-13T10:45:51.193Z,993.93
2023-03-13T10:46:51.267Z,993.88
2023-03-13T10:47:51.196Z,993.89
2023-03-13T10:48:51.158Z,993.81
2023-03-13T10:49:51.148Z,993.84
2023-03-13T10:50:51.171Z,993.78
2023-03-13T10:51:51.168Z,993.67
2023-03-13T10:52:51.135Z,993.79
2023-03-13T10:53:51.102Z,993.64
2023-03-13T10:54:51.100Z,993.68
2023-03-13T10:55:51.082Z,993.73
2023-03-13T10:56:51.070Z,993.72
2023-03-13T10:57:51.085Z,993.76
2023-03-13T10:58:51.056Z,993.70
2023-03-13T10:59:51.044Z,993.68
2023-03-13T11:00:51.038Z,993.71
2023-03-13T11:01:51.022Z,993.71
2023-03-13T11:02:51.217Z,993.60
2023-03-13T11:03:51.132Z,993.68
2023-03-13T11:04:50.989Z,993.64
2023-03-13T11:05:50.976Z,993.60
2023-03-13T11:06:50.998Z,993.57
2023-03-13T11:07:50.978Z,993.50
2023-03-13T11:08:50.998Z,993.51
2023-03-13T11:09:50.929Z,993.47
2023-03-13T11:10:50.920Z,993.55
2023-03-13T11:11:50.906Z,993.66
2023-03-13T11:12:50.928Z,993.51
2023-03-13T11:13:50.889Z,993.64
2023-03-13T11:14:50.893Z,993.58
2023-03-13T11:15:50.932Z,993.59
2023-03-13T11:16:50.859Z,993.54
2023-03-13T11:17:51.779Z,993.58
2023-03-13T11:18:50.837Z,993.64
2023-03-13T11:19:53.392Z,993.54
2023-03-13T11:20:50.818Z,993.57
2023-03-13T11:21:50.865Z,993.49
2023-03-13T11:22:50.793Z,993.47
2023-03-13T11:23:50.778Z,993.51
2023-03-13T11:24:50.789Z,993.43
2023-03-13T11:25:50.754Z,993.45
2023-03-13T11:27:03.848Z,993.45
2023-03-13T11:27:51.762Z,993.43
2023-03-13T11:28:50.731Z,993.51
2023-03-13T11:29:50.813Z,993.37
2023-03-13T11:30:50.716Z,993.46
2023-03-13T11:31:50.737Z,993.46
2023-03-13T11:32:50.771Z,993.42
2023-03-13T11:33:50.673Z,993.40
2023-03-13T11:34:50.676Z,993.51
2023-03-13T11:35:50.780Z,993.41
2023-03-13T11:36:50.639Z,993.46
2023-03-13T11:37:50.631Z,993.48
2023-03-13T11:38:50.655Z,993.33
2023-03-13T11:39:50.608Z,993.40
2023-03-13T11:40:50.625Z,993.36
2023-03-13T11:41:50.649Z,993.32
2023-03-13T11:42:50.574Z,993.35
2023-03-13T11:43:50.564Z,993.37
2023-03-13T11:44:50.557Z,993.36
2023-03-13T11:45:50.645Z,993.38
2023-03-13T11:46:50.585Z,993.36
2023-03-13T11:47:50.517Z,993.30
2023-03-13T11:48:50.512Z,993.33
2023-03-13T11:49:50.507Z,993.27
2023-03-13T11:50:50.489Z,993.30
2023-03-13T11:51:50.529Z,993.30
2023-03-13T11:52:50.536Z,993.26
2023-03-13T11:53:50.456Z,993.34
2023-03-13T11:54:50.449Z,993.27
2023-03-13T11:55:50.436Z,993.21
2023-03-13T11:56:50.444Z,993.30
2023-03-13T11:57:50.419Z,993.18
2023-03-13T11:58:50.400Z,993.24
2023-03-13T11:59:50.385Z,993.30
2023-03-13T12:00:50.398Z,993.24
2023-03-13T12:01:50.426Z,993.27
2023-03-13T12:02:50.361Z,993.26
2023-03-13T12:03:50.445Z,993.24
2023-03-13T12:04:50.366Z,993.20
2023-03-13T12:05:50.322Z,993.28
2023-03-13T12:06:50.318Z,993.21
2023-03-13T12:07:50.318Z,993.19
2023-03-13T12:08:50.311Z,993.26
2023-03-13T12:09:50.275Z,993.24
2023-03-13T12:10:50.272Z,993.20
2023-03-13T12:11:52.810Z,993.22
2023-03-13T12:12:50.249Z,993.20
2023-03-13T12:13:50.253Z,993.06
2023-03-13T12:14:50.226Z,993.08
2023-03-13T12:15:50.213Z,993.17
2023-03-13T12:16:50.290Z,993.18
2023-03-13T12:17:50.289Z,993.24
2023-03-13T12:18:50.200Z,993.21
2023-03-13T12:19:50.184Z,993.13
2023-03-13T12:20:50.233Z,992.96
2023-03-13T12:21:50.173Z,992.90